Time;durP1;ratioP1;P1;durP2;ratioP2;P2;SDS_P1;SDS_P2;PMS_P1;PMS_P2;Temp;Humidity;BMP_temperature;BMP_pressure;BME280_temperature;BME280_humidity;BME280_pressure;Samples;Min_cycle;Max_cycle;Signal;HPM_P1;HPM_P2
2021/05/15 00:01:49;;;;;;;0.95;0.88;;;12.10;83.50;;;;;;5034856;28;20237;-74
2021/05/15 00:04:15;;;;;;;0.93;0.93;;;12.10;83.40;;;;;;5038451;28;20218;-73
2021/05/15 00:06:41;;;;;;;2.70;0.90;;;12.00;83.80;;;;;;5037591;28;20888;-73
2021/05/15 00:09:07;;;;;;;1.70;0.95;;;12.00;84.40;;;;;;5034627;28;20187;-73
2021/05/15 00:11:35;;;;;;;1.58;0.90;;;12.00;84.60;;;;;;5034669;28;20715;-73
2021/05/15 00:14:01;;;;;;;3.85;1.08;;;12.00;84.70;;;;;;5037233;28;20273;-73
2021/05/15 00:16:27;;;;;;;3.08;1.15;;;11.90;85.10;;;;;;5037733;28;20722;-73
2021/05/15 00:18:52;;;;;;;1.80;1.15;;;11.90;85.40;;;;;;5037816;28;20184;-73
2021/05/15 00:21:18;;;;;;;0.90;0.90;;;11.90;85.40;;;;;;5031903;28;20184;-74
2021/05/15 00:23:44;;;;;;;1.30;1.02;;;11.80;85.40;;;;;;5038986;28;20219;-73
2021/05/15 00:26:12;;;;;;;1.38;1.27;;;11.80;85.40;;;;;;5035959;28;20661;-73
2021/05/15 00:28:38;;;;;;;0.80;0.80;;;11.80;85.50;;;;;;5035847;28;20214;-73
2021/05/15 00:31:04;;;;;;;1.58;0.70;;;11.70;85.30;;;;;;5032588;28;20604;-73
2021/05/15 00:33:30;;;;;;;1.10;1.10;;;11.70;85.60;;;;;;5037502;28;20195;-73
2021/05/15 00:35:55;;;;;;;0.93;0.93;;;11.70;85.40;;;;;;5029948;28;20187;-73
2021/05/15 00:38:21;;;;;;;0.70;0.70;;;11.60;85.50;;;;;;5034086;28;20183;-73
2021/05/15 00:40:47;;;;;;;0.65;0.65;;;11.60;85.70;;;;;;5033590;28;20192;-73
2021/05/15 00:43:12;;;;;;;1.15;1.10;;;11.60;86.00;;;;;;5040925;28;21551;-73
2021/05/15 00:45:38;;;;;;;1.23;0.77;;;11.60;86.40;;;;;;5039025;28;20187;-74
2021/05/15 00:48:05;;;;;;;0.88;0.88;;;11.60;86.30;;;;;;5034648;28;20188;-74
2021/05/15 00:50:32;;;;;;;0.90;0.85;;;11.60;86.50;;;;;;5033699;28;20179;-73
2021/05/15 00:52:59;;;;;;;1.00;1.00;;;11.60;86.30;;;;;;5031805;28;20558;-73
2021/05/15 00:55:25;;;;;;;1.08;1.02;;;11.60;86.30;;;;;;5035668;28;20274;-73
2021/05/15 00:57:53;;;;;;;0.95;0.95;;;11.60;86.30;;;;;;5032908;28;20938;-73
2021/05/15 01:00:19;;;;;;;2.95;0.77;;;11.60;86.20;;;;;;5033375;28;20603;-73
2021/05/15 01:02:45;;;;;;;1.48;0.73;;;11.60;86.30;;;;;;5036167;28;20211;-73
2021/05/15 01:05:12;;;;;;;3.30;1.60;;;11.60;86.20;;;;;;5034470;28;20184;-73
2021/05/15 01:07:38;;;;;;;0.93;0.80;;;11.60;86.40;;;;;;5038383;28;20191;-74
2021/05/15 01:10:05;;;;;;;2.38;1.02;;;11.60;86.20;;;;;;5038650;28;20188;-72
2021/05/15 01:12:31;;;;;;;1.08;1.08;;;11.60;86.10;;;;;;5033163;28;20200;-72
2021/05/15 01:14:58;;;;;;;1.48;1.38;;;11.60;86.00;;;;;;5033573;28;20274;-74
2021/05/15 01:17:24;;;;;;;3.97;1.20;;;11.60;86.20;;;;;;5035797;28;20194;-73
2021/05/15 01:19:49;;;;;;;1.50;1.42;;;11.60;86.60;;;;;;5034924;28;20188;-73
2021/05/15 01:22:16;;;;;;;2.47;1.33;;;11.50;86.40;;;;;;5034346;28;20792;-74
2021/05/15 01:24:44;;;;;;;3.75;1.27;;;11.50;86.10;;;;;;5038113;28;20200;-74
2021/05/15 01:27:12;;;;;;;2.42;1.30;;;11.50;86.10;;;;;;5032408;28;20275;-74
2021/05/15 01:29:38;;;;;;;1.20;1.05;;;11.50;85.90;;;;;;5033046;28;20250;-74
2021/05/15 01:32:04;;;;;;;1.25;1.00;;;11.40;85.80;;;;;;5039389;28;20179;-74
2021/05/15 01:34:30;;;;;;;0.80;0.73;;;11.40;85.90;;;;;;5035861;28;20209;-73
2021/05/15 01:36:56;;;;;;;1.40;0.85;;;11.40;86.10;;;;;;5029678;28;20578;-74
2021/05/15 01:39:22;;;;;;;5.78;1.33;;;11.30;86.50;;;;;;5036330;28;20180;-74
2021/05/15 01:41:48;;;;;;;2.22;0.80;;;11.30;86.50;;;;;;5035182;28;20183;-74
2021/05/15 01:44:16;;;;;;;0.90;0.90;;;11.20;86.50;;;;;;5040871;28;20608;-74
2021/05/15 01:46:42;;;;;;;1.00;1.00;;;11.20;86.50;;;;;;5038950;28;20271;-73
2021/05/15 01:49:07;;;;;;;0.95;0.95;;;11.20;86.50;;;;;;5038363;28;20192;-72
2021/05/15 01:51:33;;;;;;;2.97;1.10;;;11.10;86.50;;;;;;5036799;28;20599;-73
2021/05/15 01:53:59;;;;;;;0.75;0.75;;;11.10;86.40;;;;;;5037204;28;20188;-72
2021/05/15 01:56:30;;;;;;;0.50;0.50;;;11.00;86.30;;;;;;5038875;28;20198;-72
2021/05/15 01:58:56;;;;;;;1.60;0.73;;;11.00;86.20;;;;;;5043330;28;20190;-72
2021/05/15 02:01:26;;;;;;;0.80;0.80;;;11.00;86.10;;;;;;5040142;28;20207;-73
2021/05/15 02:03:53;;;;;;;0.60;0.60;;;11.00;86.10;;;;;;5037733;28;20320;-73
2021/05/15 02:06:19;;;;;;;0.77;0.77;;;10.90;86.30;;;;;;5039225;28;20192;-73
2021/05/15 02:08:46;;;;;;;0.73;0.73;;;10.90;86.20;;;;;;5040347;28;20180;-73
2021/05/15 02:11:16;;;;;;;5.07;1.00;;;10.90;86.40;;;;;;5034371;28;20187;-73
2021/05/15 02:13:43;;;;;;;0.98;0.90;;;10.90;86.80;;;;;;5042657;28;20187;-72
2021/05/15 02:16:09;;;;;;;2.75;0.80;;;10.90;86.80;;;;;;5034775;28;20211;-74
2021/05/15 02:18:35;;;;;;;0.70;0.70;;;10.90;86.70;;;;;;5043388;28;20187;-73
2021/05/15 02:21:01;;;;;;;1.80;0.90;;;10.90;86.80;;;;;;5036953;28;20562;-73
2021/05/15 02:23:27;;;;;;;0.70;0.70;;;10.90;86.70;;;;;;5038779;28;20220;-73
2021/05/15 02:25:54;;;;;;;3.40;0.70;;;10.80;86.90;;;;;;5041670;28;20179;-72
2021/05/15 02:28:20;;;;;;;0.50;0.50;;;10.90;87.00;;;;;;5038260;28;20684;-72
2021/05/15 02:30:46;;;;;;;1.75;0.85;;;10.80;86.90;;;;;;5038501;28;20180;-74
2021/05/15 02:33:13;;;;;;;2.03;0.90;;;10.80;86.90;;;;;;5035335;28;20184;-73
2021/05/15 02:35:38;;;;;;;0.70;0.70;;;10.80;86.80;;;;;;5035664;28;20573;-73
2021/05/15 02:38:05;;;;;;;1.00;1.00;;;10.80;86.90;;;;;;5033715;28;20180;-72
2021/05/15 02:40:31;;;;;;;0.77;0.60;;;10.80;86.70;;;;;;5040678;28;20237;-72
2021/05/15 02:42:57;;;;;;;1.90;0.90;;;10.90;86.70;;;;;;5036700;28;20211;-72
2021/05/15 02:45:24;;;;;;;0.60;0.60;;;10.90;86.60;;;;;;5039020;28;20639;-72
2021/05/15 02:47:53;;;;;;;1.00;0.90;;;10.90;86.70;;;;;;5038467;28;20184;-72
2021/05/15 02:50:20;;;;;;;0.80;0.80;;;10.90;86.70;;;;;;5039143;28;20190;-72
2021/05/15 02:52:46;;;;;;;0.70;0.70;;;10.90;86.30;;;;;;5033795;28;20191;-73
2021/05/15 02:55:15;;;;;;;0.60;0.60;;;10.90;86.30;;;;;;5040322;28;20990;-73
2021/05/15 02:57:42;;;;;;;0.60;0.60;;;10.90;86.00;;;;;;5037552;28;20624;-73
2021/05/15 03:00:11;;;;;;;0.83;0.70;;;10.90;86.20;;;;;;5041998;28;20192;-73
2021/05/15 03:02:36;;;;;;;0.55;0.55;;;10.90;86.20;;;;;;5037473;28;20227;-73
2021/05/15 03:05:08;;;;;;;1.63;0.90;;;10.90;86.40;;;;;;5037592;28;20269;-72
2021/05/15 03:07:33;;;;;;;1.40;0.50;;;10.90;86.20;;;;;;5035146;28;20191;-73
2021/05/15 03:09:59;;;;;;;6.73;0.70;;;10.90;86.40;;;;;;5042722;28;20187;-73
2021/05/15 03:12:25;;;;;;;0.50;0.50;;;10.90;86.30;;;;;;5039844;28;20273;-73
2021/05/15 03:14:50;;;;;;;0.73;0.73;;;10.90;86.50;;;;;;5042474;28;20234;-74
2021/05/15 03:17:16;;;;;;;1.30;0.60;;;11.00;86.30;;;;;;5040112;28;20184;-72
2021/05/15 03:19:42;;;;;;;1.10;1.03;;;11.00;86.20;;;;;;5035248;28;20250;-73
2021/05/15 03:22:08;;;;;;;1.87;0.80;;;11.00;86.10;;;;;;5041379;28;20188;-72
2021/05/15 03:24:33;;;;;;;1.00;1.00;;;11.00;86.10;;;;;;5038742;28;20603;-73
2021/05/15 03:26:59;;;;;;;0.60;0.60;;;11.00;86.20;;;;;;5043616;28;20246;-73
2021/05/15 03:29:26;;;;;;;0.70;0.70;;;11.00;86.10;;;;;;5037031;28;20241;-73
2021/05/15 03:31:52;;;;;;;0.80;0.80;;;11.00;86.00;;;;;;5036503;28;20190;-72
2021/05/15 03:34:18;;;;;;;0.67;0.67;;;11.00;86.20;;;;;;5039467;28;20196;-74
2021/05/15 03:36:44;;;;;;;1.60;0.63;;;11.00;86.30;;;;;;5036064;28;20181;-73
2021/05/15 03:39:09;;;;;;;0.60;0.60;;;11.10;86.50;;;;;;5034148;28;20442;-73
2021/05/15 03:41:35;;;;;;;0.85;0.85;;;11.10;86.60;;;;;;5031678;28;20191;-73
2021/05/15 03:44:01;;;;;;;0.70;0.70;;;11.10;86.80;;;;;;5038906;28;20222;-74
2021/05/15 03:46:26;;;;;;;0.57;0.57;;;11.20;86.80;;;;;;5039046;28;20195;-72
2021/05/15 03:48:52;;;;;;;2.00;0.80;;;11.20;86.90;;;;;;5039266;28;20668;-73
2021/05/15 03:51:18;;;;;;;0.65;0.65;;;11.20;86.90;;;;;;5036162;28;20905;-73
2021/05/15 03:53:43;;;;;;;1.10;1.00;;;11.30;86.80;;;;;;5030224;28;20707;-73
2021/05/15 03:56:10;;;;;;;0.90;0.90;;;11.30;86.70;;;;;;5035656;28;20262;-72
2021/05/15 03:58:36;;;;;;;0.70;0.70;;;11.30;86.60;;;;;;5039738;28;20181;-72
2021/05/15 04:01:02;;;;;;;0.50;0.50;;;11.40;86.80;;;;;;5038106;28;20249;-72
2021/05/15 04:03:27;;;;;;;3.22;1.20;;;11.40;86.90;;;;;;5038630;28;20215;-72
2021/05/15 04:05:53;;;;;;;1.05;1.05;;;11.40;87.00;;;;;;5033095;28;20679;-73
2021/05/15 04:08:19;;;;;;;0.82;0.82;;;11.40;86.90;;;;;;5036011;28;20194;-72
2021/05/15 04:10:44;;;;;;;1.02;0.80;;;11.40;86.80;;;;;;5038228;28;20190;-73
2021/05/15 04:16:00;;;;;;;2.70;0.68;;;11.50;86.90;;;;;;5037722;28;20176;-74
2021/05/15 04:18:30;;;;;;;0.45;0.45;;;11.60;86.90;;;;;;5037483;28;20195;-73
2021/05/15 04:20:57;;;;;;;0.70;0.70;;;11.60;86.70;;;;;;5038325;28;20184;-73
2021/05/15 04:23:22;;;;;;;3.05;1.65;;;11.70;86.70;;;;;;5039905;28;20601;-73
2021/05/15 04:25:49;;;;;;;1.00;1.00;;;11.70;86.80;;;;;;5038023;28;20199;-72
2021/05/15 04:28:16;;;;;;;1.00;1.00;;;11.80;86.90;;;;;;5037172;28;20184;-72
2021/05/15 04:30:42;;;;;;;2.65;1.23;;;11.80;86.90;;;;;;5035028;28;20199;-72
2021/05/15 04:33:08;;;;;;;0.93;0.93;;;11.80;87.00;;;;;;5038670;28;20673;-73
2021/05/15 04:35:34;;;;;;;0.77;0.77;;;11.90;86.90;;;;;;5037721;28;20313;-73
2021/05/15 04:38:02;;;;;;;1.23;1.00;;;11.90;86.90;;;;;;5032488;28;20687;-73
2021/05/15 04:40:29;;;;;;;1.48;0.80;;;11.90;86.70;;;;;;5032126;28;20188;-73
2021/05/15 04:42:55;;;;;;;0.90;0.90;;;11.90;86.90;;;;;;5033037;28;20625;-74
2021/05/15 04:45:21;;;;;;;1.15;1.15;;;12.00;86.70;;;;;;5030962;28;20185;-73
2021/05/15 04:47:47;;;;;;;0.70;0.70;;;12.00;86.50;;;;;;5028667;28;20185;-73
2021/05/15 04:50:31;;;;;;;1.08;0.98;;;12.00;86.40;;;;;;5037856;28;20187;-73
2021/05/15 04:52:57;;;;;;;1.50;1.08;;;12.10;86.20;;;;;;5031902;28;20222;-73
2021/05/15 04:55:23;;;;;;;0.57;0.57;;;12.10;86.50;;;;;;5029820;28;20188;-73
2021/05/15 04:57:48;;;;;;;1.00;0.75;;;12.10;86.30;;;;;;5038717;28;20271;-73
2021/05/15 05:00:14;;;;;;;0.75;0.75;;;12.10;86.30;;;;;;5040189;28;20219;-74
2021/05/15 05:02:40;;;;;;;1.20;1.05;;;12.10;86.30;;;;;;5037984;28;20234;-73
2021/05/15 05:05:07;;;;;;;4.75;0.80;;;12.20;86.20;;;;;;5035086;28;20271;-73
2021/05/15 05:07:33;;;;;;;0.85;0.85;;;12.20;86.10;;;;;;5036283;28;20187;-73
2021/05/15 05:09:58;;;;;;;0.80;0.80;;;12.30;86.10;;;;;;5033911;28;20183;-73
2021/05/15 05:12:24;;;;;;;2.65;0.90;;;12.30;86.10;;;;;;5037191;28;20736;-73
2021/05/15 05:14:50;;;;;;;1.30;1.30;;;12.40;86.30;;;;;;5045022;28;20257;-73
2021/05/15 05:17:15;;;;;;;1.33;1.30;;;12.40;86.40;;;;;;5040199;28;20195;-73
2021/05/15 05:19:41;;;;;;;2.60;1.20;;;12.50;86.00;;;;;;5038037;28;20182;-73
2021/05/15 05:22:07;;;;;;;0.95;0.95;;;12.50;85.80;;;;;;5037072;28;20241;-74
2021/05/15 05:24:33;;;;;;;2.08;0.90;;;12.60;85.80;;;;;;5041840;28;20627;-73
2021/05/15 05:27:01;;;;;;;0.80;0.80;;;12.70;85.60;;;;;;5041232;28;20239;-73
2021/05/15 05:29:26;;;;;;;2.35;1.10;;;12.70;85.20;;;;;;5038722;28;20184;-73
2021/05/15 05:31:53;;;;;;;0.60;0.60;;;12.70;85.40;;;;;;5037170;28;20192;-74
2021/05/15 05:34:19;;;;;;;1.05;1.05;;;12.80;85.40;;;;;;5035433;28;20184;-74
2021/05/15 05:36:47;;;;;;;0.70;0.70;;;12.80;85.40;;;;;;5036279;28;20205;-74
2021/05/15 05:39:18;;;;;;;2.90;0.95;;;12.90;84.60;;;;;;5043043;28;20254;-72
2021/05/15 05:41:45;;;;;;;0.50;0.50;;;12.90;83.80;;;;;;5036469;28;20184;-73
2021/05/15 05:44:11;;;;;;;4.25;0.43;;;12.80;84.00;;;;;;5042132;28;20302;-72
2021/05/15 05:46:37;;;;;;;0.65;0.65;;;12.70;83.10;;;;;;5036580;28;20188;-74
2021/05/15 05:49:04;;;;;;;2.20;0.80;;;12.80;83.10;;;;;;5037696;28;20457;-75
2021/05/15 05:51:29;;;;;;;2.72;0.32;;;12.80;82.40;;;;;;5036630;28;20238;-74
2021/05/15 05:53:55;;;;;;;0.40;0.40;;;12.90;83.70;;;;;;5037458;28;21016;-76
2021/05/15 05:56:22;;;;;;;0.77;0.32;;;13.00;83.50;;;;;;5042340;28;20219;-75
2021/05/15 05:58:48;;;;;;;0.65;0.65;;;13.10;83.30;;;;;;5032252;28;20226;-77
2021/05/15 06:01:15;;;;;;;0.60;0.60;;;13.20;83.50;;;;;;5032297;28;20654;-76
2021/05/15 06:03:42;;;;;;;0.60;0.60;;;13.30;83.30;;;;;;5036027;28;20627;-75
2021/05/15 06:06:09;;;;;;;1.17;0.57;;;13.40;82.70;;;;;;5032092;28;20185;-75
2021/05/15 06:08:35;;;;;;;0.60;0.52;;;13.60;82.90;;;;;;5040403;28;20573;-76
2021/05/15 06:11:01;;;;;;;0.90;0.90;;;13.70;82.80;;;;;;5031070;28;20209;-73
2021/05/15 06:13:30;;;;;;;3.83;0.80;;;13.90;81.70;;;;;;5036870;28;20192;-74
2021/05/15 06:15:56;;;;;;;1.10;1.10;;;14.00;81.70;;;;;;5027038;28;20187;-74
2021/05/15 06:18:22;;;;;;;1.02;0.88;;;14.00;81.30;;;;;;5026879;28;20176;-74
2021/05/15 06:20:48;;;;;;;1.45;0.70;;;14.10;80.80;;;;;;5030745;28;20176;-72
2021/05/15 06:23:14;;;;;;;0.73;0.70;;;14.30;80.30;;;;;;5036819;28;20294;-72
2021/05/15 06:25:40;;;;;;;1.05;0.75;;;14.30;80.30;;;;;;5034051;28;20192;-72
2021/05/15 06:28:06;;;;;;;0.93;0.65;;;14.30;80.30;;;;;;5033203;28;20190;-72
2021/05/15 06:30:32;;;;;;;0.98;0.60;;;14.40;79.90;;;;;;5037499;28;20191;-72
2021/05/15 06:32:58;;;;;;;0.90;0.50;;;14.40;79.40;;;;;;5036786;28;20199;-73
2021/05/15 06:35:25;;;;;;;0.50;0.50;;;14.50;79.40;;;;;;5033827;28;20180;-72
2021/05/15 06:37:50;;;;;;;0.43;0.43;;;14.60;79.40;;;;;;5030181;28;20188;-73
2021/05/15 06:40:16;;;;;;;0.40;0.40;;;14.70;79.20;;;;;;5037253;28;20195;-75
2021/05/15 06:42:42;;;;;;;1.75;0.70;;;14.90;79.00;;;;;;5035967;28;20371;-73
2021/05/15 06:45:09;;;;;;;0.40;0.40;;;15.00;79.00;;;;;;5033217;28;21033;-75
2021/05/15 06:47:36;;;;;;;0.60;0.60;;;15.10;78.60;;;;;;5034756;28;20263;-74
2021/05/15 06:50:05;;;;;;;0.70;0.50;;;15.20;78.40;;;;;;5038028;28;20183;-74
2021/05/15 06:52:30;;;;;;;0.80;0.65;;;15.30;77.60;;;;;;5034951;28;20181;-76
2021/05/15 06:54:56;;;;;;;0.40;0.40;;;15.30;77.40;;;;;;5037941;28;20187;-73
2021/05/15 06:57:22;;;;;;;0.60;0.60;;;15.40;77.60;;;;;;5039692;28;20183;-73
2021/05/15 06:59:48;;;;;;;0.95;0.63;;;15.40;77.60;;;;;;5035621;28;20180;-73
2021/05/15 07:02:14;;;;;;;0.63;0.63;;;15.50;77.60;;;;;;5040054;28;20176;-73
2021/05/15 07:04:39;;;;;;;0.55;0.55;;;15.50;77.60;;;;;;5038371;28;20259;-73
2021/05/15 07:07:05;;;;;;;0.75;0.75;;;15.60;77.60;;;;;;5041602;28;20271;-73
2021/05/15 07:09:31;;;;;;;1.30;0.60;;;15.60;77.10;;;;;;5032313;28;20206;-73
2021/05/15 07:11:57;;;;;;;0.65;0.60;;;15.70;76.40;;;;;;5030403;28;20211;-72
2021/05/15 07:14:23;;;;;;;4.10;0.60;;;15.80;76.10;;;;;;5028466;28;20181;-72
2021/05/15 07:16:51;;;;;;;3.13;0.43;;;15.90;76.20;;;;;;5031935;28;20172;-72
2021/05/15 07:19:17;;;;;;;1.17;0.70;;;16.00;75.70;;;;;;5030268;28;20284;-72
2021/05/15 07:21:43;;;;;;;1.42;0.40;;;16.00;75.00;;;;;;5031258;28;20655;-71
2021/05/15 07:24:09;;;;;;;0.40;0.40;;;16.10;74.40;;;;;;5032554;28;20247;-71
2021/05/15 07:26:35;;;;;;;3.83;0.57;;;16.20;74.10;;;;;;5030247;28;20191;-71
2021/05/15 07:29:02;;;;;;;0.40;0.40;;;16.30;75.30;;;;;;5032853;28;20617;-71
2021/05/15 07:31:27;;;;;;;3.42;0.50;;;16.40;75.60;;;;;;5035389;28;20180;-71
2021/05/15 07:33:53;;;;;;;0.77;0.77;;;16.50;75.20;;;;;;5031713;28;20213;-71
2021/05/15 07:36:19;;;;;;;0.70;0.40;;;16.60;74.90;;;;;;5034644;28;20625;-72
2021/05/15 07:38:47;;;;;;;3.00;0.80;;;16.60;74.60;;;;;;5028445;28;20214;-71
2021/05/15 07:41:13;;;;;;;2.05;0.57;;;16.80;74.70;;;;;;5037774;28;20309;-71
2021/05/15 07:43:39;;;;;;;0.60;0.60;;;16.90;73.70;;;;;;5031362;28;20766;-72
2021/05/15 07:46:05;;;;;;;1.00;0.70;;;17.00;74.50;;;;;;5038410;28;20191;-71
2021/05/15 07:48:40;;;;;;;0.50;0.50;;;17.20;74.50;;;;;;5031758;28;20216;-72
2021/05/15 07:51:20;;;;;;;1.40;0.70;;;17.30;73.40;;;;;;5031551;28;20175;-72
2021/05/15 07:53:48;;;;;;;2.97;0.70;;;17.50;73.30;;;;;;5031049;28;20183;-72
2021/05/15 07:56:14;;;;;;;1.33;0.90;;;17.60;72.80;;;;;;5035536;28;20237;-71
2021/05/15 07:58:39;;;;;;;3.70;1.00;;;17.70;72.20;;;;;;5034724;28;20180;-72
2021/05/15 08:01:05;;;;;;;2.88;0.70;;;17.90;72.20;;;;;;5033815;28;20188;-71
2021/05/15 08:03:31;;;;;;;1.10;0.95;;;18.00;72.30;;;;;;5039080;28;20219;-72
2021/05/15 08:05:56;;;;;;;2.30;0.68;;;18.20;71.20;;;;;;5037425;28;20790;-72
2021/05/15 08:08:22;;;;;;;0.73;0.73;;;18.40;70.70;;;;;;5038719;28;20183;-72
2021/05/15 08:10:48;;;;;;;0.70;0.70;;;18.70;69.90;;;;;;5033312;28;20179;-72
2021/05/15 08:13:15;;;;;;;0.80;0.80;;;18.90;69.20;;;;;;5031853;28;20181;-72
2021/05/15 08:15:41;;;;;;;0.70;0.70;;;19.20;69.00;;;;;;5037788;28;20209;-72
2021/05/15 08:18:08;;;;;;;1.13;0.60;;;19.40;68.80;;;;;;5033104;28;20735;-72
2021/05/15 08:20:34;;;;;;;2.50;0.60;;;19.60;68.50;;;;;;5031689;28;20640;-71
2021/05/15 08:22:59;;;;;;;1.75;0.80;;;19.80;68.30;;;;;;5032329;28;20228;-71
2021/05/15 08:25:25;;;;;;;1.48;0.77;;;20.00;67.70;;;;;;5030186;28;20187;-71
2021/05/15 08:27:56;;;;;;;0.70;0.63;;;20.20;66.60;;;;;;5036799;28;20191;-71
2021/05/15 08:30:23;;;;;;;1.58;0.70;;;20.40;67.10;;;;;;5034519;28;20214;-70
2021/05/15 08:32:53;;;;;;;1.90;1.00;;;20.60;66.60;;;;;;5038421;28;20802;-71
2021/05/15 08:35:19;;;;;;;0.98;0.98;;;20.80;66.40;;;;;;5032105;28;20673;-71
2021/05/15 08:37:46;;;;;;;0.80;0.55;;;21.00;65.80;;;;;;5040374;28;20266;-70
2021/05/15 08:40:13;;;;;;;0.80;0.80;;;21.20;65.00;;;;;;5032338;28;20210;-72
2021/05/15 08:42:40;;;;;;;1.55;0.88;;;21.30;64.90;;;;;;5038313;28;20238;-72
2021/05/15 08:45:11;;;;;;;3.03;0.77;;;21.40;65.60;;;;;;5038448;28;20187;-71
2021/05/15 08:47:38;;;;;;;1.52;0.85;;;21.60;64.20;;;;;;5036771;28;20223;-71
2021/05/15 08:50:08;;;;;;;0.70;0.70;;;21.70;64.10;;;;;;5039289;28;20187;-71
2021/05/15 08:52:39;;;;;;;0.63;0.63;;;21.90;63.90;;;;;;5033435;28;20180;-72
2021/05/15 08:55:08;;;;;;;0.73;0.73;;;22.10;63.80;;;;;;5041029;28;20258;-71
2021/05/15 08:57:35;;;;;;;0.70;0.70;;;22.30;62.90;;;;;;5041463;28;20179;-71
2021/05/15 09:00:11;;;;;;;0.70;0.70;;;22.40;63.10;;;;;;5039552;28;20191;-71
2021/05/15 09:02:37;;;;;;;1.40;0.80;;;22.50;62.20;;;;;;5037233;28;20570;-72
2021/05/15 09:05:07;;;;;;;0.68;0.60;;;22.50;63.00;;;;;;5032376;28;20271;-72
2021/05/15 09:07:33;;;;;;;3.85;0.80;;;22.60;63.50;;;;;;5039347;28;20180;-71
2021/05/15 09:09:58;;;;;;;1.00;0.60;;;22.70;63.60;;;;;;5041073;28;20221;-72
2021/05/15 09:12:24;;;;;;;1.65;0.90;;;22.70;63.20;;;;;;5043279;28;20209;-71
2021/05/15 09:15:01;;;;;;;1.48;0.65;;;22.80;62.10;;;;;;5038951;28;20187;-72
2021/05/15 09:17:26;;;;;;;0.43;0.43;;;22.80;62.00;;;;;;5041249;28;20278;-72
2021/05/15 09:19:54;;;;;;;1.48;0.70;;;22.80;61.80;;;;;;5036388;28;20266;-72
2021/05/15 09:22:26;;;;;;;1.35;0.55;;;22.80;61.80;;;;;;5037103;28;20180;-72
2021/05/15 09:24:53;;;;;;;2.35;0.50;;;22.80;61.40;;;;;;5042633;28;20207;-71
2021/05/15 09:27:18;;;;;;;0.43;0.43;;;22.80;60.30;;;;;;5042236;28;20188;-71
2021/05/15 09:29:47;;;;;;;0.40;0.40;;;22.60;60.50;;;;;;5037411;28;20286;-72
2021/05/15 09:32:14;;;;;;;4.80;0.60;;;22.60;61.50;;;;;;5041226;28;20601;-71
2021/05/15 09:34:49;;;;;;;0.40;0.40;;;22.50;61.30;;;;;;5038085;28;20207;-71
2021/05/15 09:37:35;;;;;;;0.40;0.40;;;22.40;61.80;;;;;;5034790;28;20746;-72
2021/05/15 09:40:24;;;;;;;0.43;0.43;;;22.20;61.30;;;;;;5035825;28;20192;-73
2021/05/15 09:42:54;;;;;;;0.43;0.43;;;22.00;61.40;;;;;;5040409;28;20215;-71
2021/05/15 09:45:28;;;;;;;0.55;0.40;;;21.80;62.10;;;;;;5029880;28;20272;-72
2021/05/15 09:48:09;;;;;;;1.67;0.70;;;21.50;62.10;;;;;;5031155;28;20188;-71
2021/05/15 09:50:43;;;;;;;0.90;0.60;;;21.20;62.60;;;;;;5037553;28;20267;-72
2021/05/15 09:53:15;;;;;;;0.70;0.70;;;20.90;63.00;;;;;;5037394;28;20183;-71
2021/05/15 09:55:42;;;;;;;0.80;0.60;;;20.60;63.80;;;;;;5039695;28;20194;-71
2021/05/15 09:58:09;;;;;;;0.90;0.90;;;20.40;63.90;;;;;;5038185;28;20598;-70
2021/05/15 10:00:50;;;;;;;0.88;0.88;;;20.20;64.50;;;;;;5040649;28;20184;-70
2021/05/15 10:03:24;;;;;;;1.15;0.85;;;19.70;65.70;;;;;;5042606;28;20222;-71
2021/05/15 10:05:59;;;;;;;0.65;0.65;;;19.70;65.80;;;;;;5038167;28;20187;-71
2021/05/15 10:08:25;;;;;;;1.38;0.60;;;19.50;66.90;;;;;;5036449;28;20183;-71
2021/05/15 10:10:52;;;;;;;8.13;0.60;;;19.40;66.90;;;;;;5036836;28;20697;-71
2021/05/15 10:13:19;;;;;;;0.75;0.60;;;19.30;67.50;;;;;;5043822;28;20619;-71
2021/05/15 10:15:45;;;;;;;9.18;0.70;;;19.10;68.30;;;;;;5040233;28;20197;-72
2021/05/15 10:18:13;;;;;;;0.85;0.63;;;18.80;71.40;;;;;;5036798;28;20184;-71
2021/05/15 10:20:40;;;;;;;0.85;0.60;;;18.60;73.30;;;;;;5038152;28;20216;-71
2021/05/15 10:23:19;;;;;;;1.70;0.75;;;18.40;75.20;;;;;;5039229;28;20219;-70
2021/05/15 10:25:46;;;;;;;0.40;0.40;;;18.20;76.50;;;;;;5037884;28;20558;-71
2021/05/15 10:28:12;;;;;;;1.85;0.45;;;18.00;75.90;;;;;;5035929;28;20395;-69
2021/05/15 10:30:38;;;;;;;1.02;0.85;;;17.80;74.20;;;;;;5038876;28;20738;-71
2021/05/15 10:33:07;;;;;;;0.50;0.50;;;17.50;76.50;;;;;;5040551;28;20212;-72
2021/05/15 10:35:39;;;;;;;1.13;0.60;;;17.10;76.90;;;;;;5041886;28;20187;-73
2021/05/15 10:38:11;;;;;;;0.80;0.80;;;17.20;76.90;;;;;;5041924;28;20782;-73
2021/05/15 10:40:53;;;;;;;0.50;0.50;;;17.00;77.10;;;;;;5033899;28;20259;-72
2021/05/15 10:43:32;;;;;;;0.40;0.40;;;16.80;75.90;;;;;;5039780;28;20258;-73
2021/05/15 10:45:58;;;;;;;2.08;0.70;;;16.80;77.30;;;;;;5032142;28;20271;-72
2021/05/15 10:48:28;;;;;;;0.47;0.47;;;16.40;79.30;;;;;;5040677;28;20180;-74
2021/05/15 10:50:54;;;;;;;1.27;0.55;;;15.90;79.30;;;;;;5041756;28;20189;-74
2021/05/15 10:53:22;;;;;;;0.70;0.70;;;15.40;80.50;;;;;;5037989;28;20195;-73
2021/05/15 10:56:24;;;;;;;2.38;0.70;;;15.10;82.50;;;;;;5038239;28;20191;-73
2021/05/15 10:58:51;;;;;;;0.50;0.50;;;14.90;83.90;;;;;;5044386;28;20284;-74
2021/05/15 11:01:21;;;;;;;0.90;0.90;;;14.80;85.00;;;;;;5048017;28;20195;-74
2021/05/15 11:03:49;;;;;;;1.08;0.93;;;14.70;86.30;;;;;;5045466;28;20450;-73
2021/05/15 11:06:19;;;;;;;0.77;0.77;;;14.70;86.50;;;;;;5042978;28;20207;-73
2021/05/15 11:08:59;;;;;;;1.98;0.73;;;14.70;86.20;;;;;;5047890;28;20195;-74
2021/05/15 11:11:38;;;;;;;0.77;0.68;;;14.70;85.70;;;;;;5047075;28;20282;-74
2021/05/15 11:14:23;;;;;;;0.90;0.80;;;14.80;86.10;;;;;;5044471;28;20191;-72
2021/05/15 11:17:05;;;;;;;0.77;0.77;;;14.80;86.90;;;;;;5039661;28;20202;-74
2021/05/15 11:19:31;;;;;;;3.13;0.75;;;14.80;86.90;;;;;;5044846;28;20817;-72
2021/05/15 11:21:57;;;;;;;1.13;0.50;;;14.90;87.80;;;;;;5044881;28;20195;-72
2021/05/15 11:24:34;;;;;;;1.13;0.60;;;14.90;87.60;;;;;;5047033;28;20254;-72
2021/05/15 11:27:12;;;;;;;0.60;0.60;;;14.90;86.50;;;;;;5045971;28;20194;-73
2021/05/15 11:29:38;;;;;;;2.78;0.80;;;15.00;88.10;;;;;;5043964;28;20187;-73
2021/05/15 11:32:08;;;;;;;2.33;2.20;;;15.00;87.60;;;;;;5044599;28;20194;-73
2021/05/15 11:34:34;;;;;;;1.92;1.67;;;15.00;88.40;;;;;;5040177;28;20224;-73
2021/05/15 11:37:00;;;;;;;4.00;1.90;;;14.90;89.90;;;;;;5033616;28;20257;-73
2021/05/15 11:39:26;;;;;;;5.35;1.02;;;14.80;90.40;;;;;;5036096;28;20189;-73
2021/05/15 11:42:09;;;;;;;9.18;1.20;;;14.70;89.90;;;;;;5036449;28;20188;-73
2021/05/15 11:44:36;;;;;;;1.33;1.10;;;14.70;88.40;;;;;;5035677;28;20897;-72
2021/05/15 11:47:03;;;;;;;2.75;1.33;;;14.70;88.90;;;;;;5036022;28;20315;-73
2021/05/15 11:49:29;;;;;;;2.08;1.13;;;14.80;89.10;;;;;;5032169;28;20251;-72
2021/05/15 11:51:59;;;;;;;4.43;1.10;;;14.90;90.10;;;;;;5021499;28;20849;-72
2021/05/15 11:54:25;;;;;;;2.42;1.33;;;15.00;88.90;;;;;;5030012;28;20625;-73
2021/05/15 11:56:52;;;;;;;1.27;1.20;;;15.10;88.60;;;;;;5010530;28;20208;-73
2021/05/15 11:59:19;;;;;;;1.35;1.25;;;15.20;88.70;;;;;;5027670;28;20195;-73
2021/05/15 12:01:45;;;;;;;1.20;1.20;;;15.40;89.30;;;;;;5013994;28;20191;-73
2021/05/15 12:04:31;;;;;;;2.75;1.15;;;15.50;89.70;;;;;;5026564;28;20230;-73
2021/05/15 12:06:58;;;;;;;2.33;2.13;;;15.70;89.60;;;;;;5024409;28;20680;-73
2021/05/15 12:09:27;;;;;;;4.13;2.35;;;15.80;91.30;;;;;;5026704;28;20219;-72
2021/05/15 12:11:57;;;;;;;2.13;2.03;;;15.70;91.40;;;;;;5006947;28;20639;-72
2021/05/15 12:14:24;;;;;;;1.65;1.55;;;15.60;92.30;;;;;;5020880;28;20209;-74
2021/05/15 12:16:49;;;;;;;1.77;1.67;;;15.60;91.40;;;;;;5017590;28;20185;-73
2021/05/15 12:19:28;;;;;;;4.50;1.55;;;15.50;92.80;;;;;;5020730;28;20203;-73
2021/05/15 12:22:00;;;;;;;0.95;0.95;;;15.40;92.40;;;;;;5020613;28;20259;-73
2021/05/15 12:24:40;;;;;;;1.73;1.63;;;15.30;92.60;;;;;;5026287;28;20223;-73
2021/05/15 12:27:31;;;;;;;2.78;1.52;;;15.40;91.90;;;;;;5012463;28;20185;-73
2021/05/15 12:29:58;;;;;;;2.55;1.30;;;15.30;92.20;;;;;;5023636;28;20597;-73
2021/05/15 12:32:26;;;;;;;1.27;0.95;;;15.30;90.90;;;;;;5023239;28;20933;-73
2021/05/15 12:35:03;;;;;;;2.30;1.42;;;15.30;90.80;;;;;;5016208;28;20600;-72
2021/05/15 12:37:37;;;;;;;1.52;1.42;;;15.40;91.00;;;;;;5023131;28;20670;-73
2021/05/15 12:40:14;;;;;;;2.65;1.60;;;15.40;92.40;;;;;;5024105;28;20261;-73
2021/05/15 12:42:40;;;;;;;6.25;3.22;;;15.40;92.70;;;;;;5017087;28;20204;-73
2021/05/15 12:45:14;;;;;;;3.22;2.35;;;15.40;93.10;;;;;;5025019;28;20679;-73
2021/05/15 12:47:40;;;;;;;1.33;1.30;;;15.40;91.70;;;;;;5016690;28;20188;-73
2021/05/15 12:50:29;;;;;;;1.65;1.02;;;15.30;90.60;;;;;;5008452;28;20181;-73
2021/05/15 12:53:05;;;;;;;3.05;0.95;;;15.30;89.30;;;;;;5021628;28;20267;-73
2021/05/15 12:55:30;;;;;;;3.88;1.20;;;15.30;89.90;;;;;;5020337;28;20180;-73